createdAt,value
2022-09-24T00:00:33.189Z,12.90
2022-09-24T00:02:36.195Z,11.77
2022-09-24T00:04:39.229Z,12.10
2022-09-24T00:06:44.382Z,13.83
2022-09-24T00:08:48.699Z,13.20
2022-09-24T00:10:52.998Z,16.37
2022-09-24T00:12:56.214Z,19.87
2022-09-24T00:14:59.108Z,24.27
2022-09-24T00:17:02.038Z,23.50
2022-09-24T00:19:05.223Z,26.63
2022-09-24T00:21:19.677Z,24.73
2022-09-24T00:23:22.725Z,29.00
2022-09-24T00:25:43.362Z,29.47
2022-09-24T00:27:47.653Z,31.83
2022-09-24T00:29:50.639Z,30.93
2022-09-24T00:31:54.258Z,33.37
2022-09-24T00:33:58.213Z,30.93
2022-09-24T00:36:02.454Z,28.40
2022-09-24T00:38:06.188Z,28.20
2022-09-24T00:40:10.866Z,31.57
2022-09-24T00:42:14.005Z,28.40
2022-09-24T00:44:53.705Z,21.27
2022-09-24T00:46:58.221Z,17.63
2022-09-24T00:49:03.896Z,23.00
2022-09-24T00:51:07.059Z,21.37
2022-09-24T00:53:13.153Z,20.57
2022-09-24T00:55:16.495Z,18.70
2022-09-24T00:57:19.491Z,19.40
2022-09-24T00:59:24.558Z,16.83
2022-09-24T01:01:27.514Z,17.13
2022-09-24T01:03:33.427Z,16.30
2022-09-24T01:05:36.988Z,14.20
2022-09-24T01:07:39.957Z,14.60
2022-09-24T01:09:43.040Z,16.50
2022-09-24T01:11:49.960Z,15.17
2022-09-24T01:14:14.687Z,14.10
2022-09-24T01:16:26.377Z,13.57
2022-09-24T01:18:36.970Z,13.03
2022-09-24T01:20:57.734Z,12.40
2022-09-24T01:23:12.531Z,12.07
2022-09-24T01:25:21.764Z,11.33
2022-09-24T01:27:38.205Z,11.97
2022-09-24T01:29:49.800Z,10.67
2022-09-24T01:31:55.379Z,10.50
2022-09-24T01:34:00.376Z,11.20
2022-09-24T01:36:08.224Z,11.03
2022-09-24T01:38:15.187Z,10.83
2022-09-24T01:40:19.528Z,10.97
2022-09-24T01:42:23.433Z,11.03
2022-09-24T01:44:26.601Z,10.33
2022-09-24T01:46:31.967Z,11.70
2022-09-24T01:48:37.294Z,10.23
2022-09-24T01:50:45.053Z,10.90
2022-09-24T01:52:52.118Z,10.20
2022-09-24T01:54:56.428Z,12.63
2022-09-24T01:57:05.109Z,13.67
2022-09-24T01:59:12.983Z,10.70
2022-09-24T02:01:19.123Z,12.17
2022-09-24T02:03:28.805Z,10.97
2022-09-24T02:05:34.121Z,10.30
2022-09-24T02:07:40.700Z,11.17
2022-09-24T02:09:44.783Z,10.50
2022-09-24T02:11:50.896Z,10.97
2022-09-24T02:13:56.882Z,10.00
2022-09-24T02:16:01.291Z,13.77
2022-09-24T02:18:08.138Z,11.03
2022-09-24T02:20:15.121Z,11.13
2022-09-24T02:22:18.709Z,10.90
2022-09-24T02:24:24.073Z,11.70
2022-09-24T02:26:27.005Z,11.40
2022-09-24T02:28:30.468Z,10.50
2022-09-24T02:30:37.802Z,11.53
2022-09-24T02:32:42.118Z,11.27
2022-09-24T02:34:47.223Z,11.10
2022-09-24T02:36:54.024Z,10.60
2022-09-24T02:38:57.222Z,11.43
2022-09-24T02:41:00.150Z,10.70
2022-09-24T02:43:03.101Z,10.93
2022-09-24T02:45:08.031Z,11.20
2022-09-24T02:47:10.995Z,12.30
2022-09-24T02:49:14.135Z,13.20
2022-09-24T02:51:17.135Z,11.10
2022-09-24T02:53:21.402Z,10.97
2022-09-24T02:55:24.313Z,13.73
2022-09-24T02:57:27.239Z,9.70
2022-09-24T02:59:30.206Z,10.90
2022-09-24T03:01:33.727Z,11.30
2022-09-24T03:03:36.779Z,11.33
2022-09-24T03:05:39.716Z,10.70
2022-09-24T03:07:45.727Z,12.23
2022-09-24T03:09:53.387Z,12.70
2022-09-24T03:11:56.777Z,11.80
2022-09-24T03:14:00.496Z,13.90
2022-09-24T03:16:03.964Z,11.20
2022-09-24T03:18:07.485Z,10.40
2022-09-24T03:20:10.748Z,11.43
2022-09-24T03:22:13.677Z,11.03
2022-09-24T03:24:16.583Z,10.40
2022-09-24T03:26:20.883Z,10.93
2022-09-24T03:28:24.052Z,11.07
2022-09-24T03:30:44.551Z,11.93
2022-09-24T03:32:48.770Z,10.83
2022-09-24T03:34:51.688Z,13.23
2022-09-24T03:36:54.600Z,12.23
2022-09-24T03:38:58.478Z,12.07
2022-09-24T03:41:02.060Z,12.87
2022-09-24T03:43:06.313Z,11.97
2022-09-24T03:45:10.183Z,10.93
2022-09-24T03:47:13.564Z,10.43
2022-09-24T03:49:17.013Z,11.87
2022-09-24T03:51:20.522Z,11.03
2022-09-24T03:53:23.600Z,15.10
2022-09-24T03:55:26.640Z,10.93
2022-09-24T03:57:29.519Z,12.03
2022-09-24T03:59:33.879Z,9.90
2022-09-24T04:01:37.353Z,12.23
2022-09-24T04:03:40.675Z,10.80
2022-09-24T04:05:43.700Z,9.50
2022-09-24T04:07:46.780Z,11.07
2022-09-24T04:09:49.689Z,10.37
2022-09-24T04:11:53.361Z,9.87
2022-09-24T04:13:56.242Z,10.93
2022-09-24T04:16:04.665Z,9.97
2022-09-24T04:18:07.954Z,10.50
2022-09-24T04:20:12.933Z,9.97
2022-09-24T04:22:15.818Z,11.33
2022-09-24T04:24:19.053Z,10.90
2022-09-24T04:26:21.923Z,10.27
2022-09-24T04:28:25.194Z,10.80
2022-09-24T04:30:28.941Z,10.33
2022-09-24T04:32:33.403Z,10.70
2022-09-24T04:34:36.385Z,10.77
2022-09-24T04:36:39.316Z,10.30
2022-09-24T04:38:42.287Z,12.70
2022-09-24T04:40:47.222Z,12.40
2022-09-24T04:42:50.414Z,9.93
2022-09-24T04:44:56.139Z,11.47
2022-09-24T04:47:03.015Z,12.23
2022-09-24T04:49:09.632Z,10.30
2022-09-24T04:51:12.722Z,11.50
2022-09-24T04:53:15.640Z,11.17
2022-09-24T04:55:20.693Z,10.77
2022-09-24T04:57:23.734Z,10.73
2022-09-24T04:59:26.695Z,10.07
2022-09-24T05:01:30.212Z,12.10
2022-09-24T05:03:33.218Z,11.93
2022-09-24T05:05:37.606Z,10.30
2022-09-24T05:07:40.951Z,10.17
2022-09-24T05:09:43.948Z,11.43
2022-09-24T05:11:46.897Z,10.87
2022-09-24T05:13:49.900Z,10.60
2022-09-24T05:15:52.880Z,10.90
2022-09-24T05:17:55.875Z,14.17
2022-09-24T05:19:59.609Z,11.23
2022-09-24T05:22:03.975Z,11.10
2022-09-24T05:24:07.432Z,11.87
2022-09-24T05:26:27.657Z,14.93
2022-09-24T05:28:33.111Z,15.60
2022-09-24T05:30:37.010Z,11.77
2022-09-24T05:32:40.146Z,13.67
2022-09-24T05:34:43.600Z,16.70
2022-09-24T05:36:46.697Z,26.60
2022-09-24T05:38:50.979Z,24.40
2022-09-24T05:40:54.829Z,16.53
2022-09-24T05:43:01.268Z,18.27
2022-09-24T05:45:05.053Z,15.33
2022-09-24T05:47:08.062Z,11.53
2022-09-24T05:49:11.045Z,11.57
2022-09-24T05:51:14.073Z,12.10
2022-09-24T05:53:17.048Z,12.30
2022-09-24T05:55:21.432Z,11.60
2022-09-24T05:57:24.352Z,10.17
2022-09-24T05:59:27.673Z,11.00
2022-09-24T06:01:31.222Z,11.10
2022-09-24T06:03:34.295Z,14.67
2022-09-24T06:05:37.307Z,10.47
2022-09-24T06:07:40.570Z,11.17
2022-09-24T06:09:44.133Z,12.40
2022-09-24T06:11:50.387Z,11.60
2022-09-24T06:13:53.330Z,10.57
2022-09-24T06:16:01.467Z,11.30
2022-09-24T06:18:04.508Z,11.17
2022-09-24T06:20:16.455Z,14.40
2022-09-24T06:22:22.049Z,13.23
2022-09-24T06:24:26.909Z,11.40
2022-09-24T06:26:29.834Z,11.90
2022-09-24T06:28:34.144Z,11.43
2022-09-24T06:30:38.755Z,12.40
2022-09-24T06:32:41.709Z,17.73
2022-09-24T06:34:44.653Z,13.67
2022-09-24T06:36:47.575Z,15.33
2022-09-24T06:38:52.274Z,17.20
2022-09-24T06:40:59.964Z,29.00
2022-09-24T06:43:03.014Z,25.57
2022-09-24T06:45:08.720Z,20.70
2022-09-24T06:47:12.597Z,18.37
2022-09-24T06:49:15.554Z,15.20
2022-09-24T06:51:18.643Z,24.60
2022-09-24T06:53:21.676Z,15.03
2022-09-24T06:55:24.840Z,12.27
2022-09-24T06:57:29.013Z,18.33
2022-09-24T06:59:32.106Z,14.00
2022-09-24T07:01:36.622Z,11.40
2022-09-24T07:03:40.256Z,11.57
2022-09-24T07:05:44.061Z,11.23
2022-09-24T07:07:47.176Z,15.47
2022-09-24T07:09:50.157Z,14.83
2022-09-24T07:11:53.100Z,11.23
2022-09-24T07:13:56.071Z,10.90
2022-09-24T07:16:01.408Z,12.27
2022-09-24T07:18:05.983Z,12.03
2022-09-24T07:20:09.947Z,14.17
2022-09-24T07:22:12.949Z,13.47
2022-09-24T07:24:15.903Z,12.23
2022-09-24T07:26:18.952Z,10.77
2022-09-24T07:28:21.872Z,14.17
2022-09-24T07:30:27.197Z,13.80
2022-09-24T07:32:30.830Z,16.83
2022-09-24T07:34:35.181Z,34.70
2022-09-24T07:36:38.138Z,22.13
2022-09-24T07:38:41.114Z,21.53
2022-09-24T07:40:44.906Z,14.73
2022-09-24T07:42:48.377Z,11.23
2022-09-24T07:44:51.376Z,11.53
2022-09-24T07:46:54.457Z,12.40
2022-09-24T07:48:57.407Z,12.90
2022-09-24T07:51:01.753Z,12.60
2022-09-24T07:53:04.734Z,12.30
2022-09-24T07:55:09.155Z,12.40
2022-09-24T07:57:13.778Z,13.57
2022-09-24T07:59:16.718Z,13.57
2022-09-24T08:01:20.382Z,12.23
2022-09-24T08:03:23.521Z,12.47
2022-09-24T08:05:26.521Z,11.63
2022-09-24T08:07:30.818Z,13.57
2022-09-24T08:09:33.846Z,13.37
2022-09-24T08:11:36.889Z,12.70
2022-09-24T08:13:40.051Z,13.17
2022-09-24T08:15:43.071Z,13.93
2022-09-24T08:17:46.326Z,13.40
2022-09-24T08:19:49.267Z,14.87
2022-09-24T08:21:53.927Z,12.40
2022-09-24T08:23:58.271Z,13.63
2022-09-24T08:26:01.278Z,13.13
2022-09-24T08:28:05.011Z,13.63
2022-09-24T08:30:09.291Z,13.33
2022-09-24T08:32:12.952Z,14.57
2022-09-24T08:34:16.212Z,14.83
2022-09-24T08:36:19.289Z,13.50
2022-09-24T08:38:22.454Z,14.13
2022-09-24T08:40:30.169Z,13.33
2022-09-24T08:42:38.251Z,14.60
2022-09-24T08:45:01.097Z,16.50
2022-09-24T08:47:22.245Z,15.93
2022-09-24T08:49:29.136Z,15.73
2022-09-24T08:51:37.547Z,16.70
2022-09-24T08:53:46.151Z,17.50
2022-09-24T08:55:52.492Z,18.17
2022-09-24T08:58:00.611Z,19.70
2022-09-24T09:00:04.504Z,17.53
2022-09-24T09:02:19.350Z,16.60
2022-09-24T09:04:26.995Z,15.10
2022-09-24T09:06:53.788Z,16.57
2022-09-24T09:09:16.599Z,15.57
2022-09-24T09:11:24.023Z,16.47
2022-09-24T09:13:29.521Z,17.97
2022-09-24T09:15:35.079Z,15.13
2022-09-24T09:17:45.272Z,14.87
2022-09-24T09:19:53.838Z,15.70
2022-09-24T09:21:58.645Z,16.03
2022-09-24T09:24:03.065Z,17.50
2022-09-24T09:26:06.895Z,16.93
2022-09-24T09:28:15.343Z,16.07
2022-09-24T09:30:20.843Z,15.93
2022-09-24T09:32:32.314Z,17.27
2022-09-24T09:34:50.998Z,16.80
2022-09-24T09:37:04.963Z,16.50
2022-09-24T09:39:21.179Z,15.67
2022-09-24T09:41:30.397Z,16.50
2022-09-24T09:43:35.356Z,17.53
2022-09-24T09:45:43.104Z,17.43
2022-09-24T09:47:48.574Z,16.13
2022-09-24T09:49:53.923Z,18.00
2022-09-24T09:51:57.800Z,20.23
2022-09-24T09:54:02.085Z,17.23
2022-09-24T09:56:07.440Z,18.27
2022-09-24T09:58:19.769Z,17.40
2022-09-24T10:00:28.862Z,17.30
2022-09-24T10:02:33.553Z,17.50
2022-09-24T10:04:40.280Z,17.83
2022-09-24T10:06:43.228Z,17.47
2022-09-24T10:08:46.155Z,15.33
2022-09-24T10:10:55.293Z,15.87
2022-09-24T10:13:09.589Z,15.53
2022-09-24T10:15:19.118Z,15.50
2022-09-24T10:17:25.566Z,16.10
2022-09-24T10:19:29.932Z,14.00
2022-09-24T10:21:34.323Z,15.37
2022-09-24T10:23:39.247Z,16.37
2022-09-24T10:25:42.360Z,15.37
2022-09-24T10:27:45.327Z,17.30
2022-09-24T10:30:05.871Z,17.13
2022-09-24T10:32:16.074Z,20.57
2022-09-24T10:34:23.434Z,17.33
2022-09-24T10:36:28.061Z,18.03
2022-09-24T10:38:31.838Z,18.50
2022-09-24T10:40:41.066Z,17.60
2022-09-24T10:42:44.147Z,21.03
2022-09-24T10:44:52.590Z,19.27
2022-09-24T10:47:08.919Z,16.40
2022-09-24T10:49:20.435Z,17.33
2022-09-24T10:51:30.049Z,16.27
2022-09-24T10:53:44.125Z,16.90
2022-09-24T10:55:55.453Z,16.23
2022-09-24T10:58:04.053Z,15.60
2022-09-24T11:00:12.721Z,16.73
2022-09-24T11:02:43.152Z,18.43
2022-09-24T11:04:52.019Z,16.67
2022-09-24T11:07:17.959Z,17.60
2022-09-24T11:09:27.440Z,16.60
2022-09-24T11:11:40.106Z,16.83
2022-09-24T11:13:51.620Z,15.50
2022-09-24T11:16:18.058Z,13.97
2022-09-24T11:18:32.482Z,17.40
2022-09-24T11:20:37.799Z,14.53
2022-09-24T11:22:51.734Z,15.10
2022-09-24T11:25:11.224Z,13.80
2022-09-24T11:27:47.539Z,15.47
2022-09-24T11:29:59.854Z,15.67
2022-09-24T11:32:08.579Z,13.70
2022-09-24T11:34:36.899Z,13.63
2022-09-24T11:37:01.059Z,16.77
2022-09-24T11:39:24.563Z,16.40
2022-09-24T11:41:37.992Z,12.53
2022-09-24T11:44:22.239Z,14.50
2022-09-24T11:46:37.979Z,14.87
2022-09-24T11:48:56.648Z,14.70
2022-09-24T11:51:05.783Z,15.07
2022-09-24T11:53:14.465Z,14.03
2022-09-24T11:55:21.311Z,14.63
2022-09-24T11:57:26.663Z,15.27
2022-09-24T11:59:38.848Z,14.10
2022-09-24T12:01:48.697Z,15.10
2022-09-24T12:03:57.048Z,14.43
2022-09-24T12:06:04.337Z,14.53
2022-09-24T12:08:12.397Z,15.70
2022-09-24T12:10:29.823Z,16.17
2022-09-24T12:12:36.536Z,14.73
2022-09-24T12:14:45.998Z,15.13
2022-09-24T12:16:51.124Z,15.67
2022-09-24T12:18:56.952Z,15.40
2022-09-24T12:21:01.921Z,15.73
2022-09-24T12:23:07.927Z,14.90
2022-09-24T12:25:13.056Z,16.93
2022-09-24T12:27:20.418Z,18.50
2022-09-24T12:29:56.087Z,16.40
2022-09-24T12:32:22.215Z,15.30
2022-09-24T12:34:30.957Z,15.30
2022-09-24T12:36:57.028Z,15.27
2022-09-24T12:39:03.847Z,18.63
2022-09-24T12:41:22.077Z,15.00
2022-09-24T12:43:31.410Z,16.30
2022-09-24T12:45:35.209Z,16.53
2022-09-24T12:47:47.274Z,17.73
2022-09-24T12:49:53.805Z,19.90
2022-09-24T12:51:57.984Z,16.97
2022-09-24T12:54:07.115Z,16.37
2022-09-24T12:56:11.403Z,15.97
2022-09-24T12:58:29.283Z,15.70
2022-09-24T13:00:38.440Z,16.27
2022-09-24T13:02:46.249Z,17.10
2022-09-24T13:04:52.776Z,16.90
2022-09-24T13:06:56.058Z,16.23
2022-09-24T13:08:59.156Z,17.73
2022-09-24T13:11:05.768Z,18.17
2022-09-24T13:13:22.704Z,17.07
2022-09-24T13:15:31.963Z,17.97
2022-09-24T13:17:38.172Z,19.20
2022-09-24T13:19:43.631Z,19.33
2022-09-24T13:21:54.843Z,19.63
2022-09-24T13:23:58.462Z,20.43
2022-09-24T13:26:02.930Z,21.77
2022-09-24T13:28:21.798Z,25.30
2022-09-24T13:30:35.986Z,22.00
2022-09-24T13:32:45.105Z,23.67
2022-09-24T13:34:50.428Z,22.60
2022-09-24T13:36:58.438Z,22.23
2022-09-24T13:39:06.077Z,21.33
2022-09-24T13:41:22.317Z,23.23
2022-09-24T13:43:36.832Z,22.03
2022-09-24T13:45:43.724Z,22.63
2022-09-24T13:47:49.039Z,23.00
2022-09-24T13:49:53.128Z,22.57
2022-09-24T13:52:04.097Z,23.20
2022-09-24T13:54:13.147Z,22.27
2022-09-24T13:56:18.366Z,22.63
2022-09-24T13:58:28.665Z,20.13
2022-09-24T14:00:32.727Z,22.63
2022-09-24T14:02:38.883Z,22.60
2022-09-24T14:04:43.126Z,20.87
2022-09-24T14:06:50.385Z,22.37
2022-09-24T14:08:53.338Z,22.47
2022-09-24T14:11:08.015Z,21.40
2022-09-24T14:13:19.274Z,20.63
2022-09-24T14:15:22.324Z,20.93
2022-09-24T14:17:25.898Z,23.27
2022-09-24T14:19:30.271Z,26.73
2022-09-24T14:21:35.573Z,24.97
2022-09-24T14:23:41.396Z,25.70
2022-09-24T14:25:44.413Z,25.20
2022-09-24T14:27:49.487Z,27.97
2022-09-24T14:29:55.805Z,24.73
2022-09-24T14:32:00.168Z,25.03
2022-09-24T14:34:03.795Z,24.87
2022-09-24T14:36:11.679Z,23.53
2022-09-24T14:38:16.532Z,25.80
2022-09-24T14:40:21.883Z,25.80
2022-09-24T14:42:28.232Z,25.90
2022-09-24T14:44:31.334Z,26.87
2022-09-24T14:46:36.481Z,38.67
2022-09-24T14:48:41.011Z,35.67
2022-09-24T14:50:44.089Z,23.87
2022-09-24T14:52:56.679Z,24.23
2022-09-24T14:55:09.797Z,25.10
2022-09-24T14:57:24.490Z,24.10
2022-09-24T14:59:31.596Z,24.33
2022-09-24T15:01:34.855Z,25.97
2022-09-24T15:03:40.966Z,26.00
2022-09-24T15:05:46.175Z,26.10
2022-09-24T15:07:50.763Z,28.70
2022-09-24T15:09:54.957Z,29.53
2022-09-24T15:12:08.700Z,25.70
2022-09-24T15:14:15.648Z,22.97
2022-09-24T15:16:21.298Z,22.13
2022-09-24T15:18:24.484Z,24.03
2022-09-24T15:20:27.501Z,32.00
2022-09-24T15:22:31.510Z,28.77
2022-09-24T15:24:35.848Z,25.00
2022-09-24T15:26:41.459Z,22.70
2022-09-24T15:28:44.397Z,24.53
2022-09-24T15:30:47.421Z,23.50
2022-09-24T15:32:51.163Z,25.33
2022-09-24T15:34:54.989Z,26.80
2022-09-24T15:36:59.735Z,23.40
2022-09-24T15:39:04.876Z,30.70
2022-09-24T15:41:09.801Z,25.43
2022-09-24T15:43:21.999Z,22.33
2022-09-24T15:45:26.679Z,28.07
2022-09-24T15:47:29.690Z,27.07
2022-09-24T15:49:32.714Z,25.03
2022-09-24T15:51:35.717Z,24.47
2022-09-24T15:53:38.670Z,24.27
2022-09-24T15:55:41.727Z,24.37
2022-09-24T15:57:46.900Z,24.03
2022-09-24T15:59:50.115Z,27.73
2022-09-24T16:01:55.575Z,23.90
2022-09-24T16:03:58.842Z,22.50
2022-09-24T16:06:02.066Z,22.30
2022-09-24T16:08:04.983Z,23.53
2022-09-24T16:10:09.213Z,23.83
2022-09-24T16:12:15.250Z,25.13
2022-09-24T16:14:19.680Z,25.10
2022-09-24T16:16:22.807Z,23.20
2022-09-24T16:18:26.788Z,26.67
2022-09-24T16:20:29.836Z,26.10
2022-09-24T16:22:32.784Z,24.10
2022-09-24T16:24:36.134Z,24.70
2022-09-24T16:26:39.542Z,24.33
2022-09-24T16:28:42.526Z,25.40
2022-09-24T16:30:46.915Z,25.20
2022-09-24T16:32:50.080Z,24.33
2022-09-24T16:34:54.814Z,26.40
2022-09-24T16:36:57.852Z,25.93
2022-09-24T16:39:02.126Z,28.03
2022-09-24T16:41:05.494Z,26.17
2022-09-24T16:43:08.543Z,25.10
2022-09-24T16:45:12.470Z,24.90
2022-09-24T16:47:17.660Z,30.00
2022-09-24T16:49:20.655Z,26.87
2022-09-24T16:51:23.687Z,27.03
2022-09-24T16:53:26.648Z,26.87
2022-09-24T16:55:29.745Z,29.30
2022-09-24T16:57:32.829Z,30.17
2022-09-24T16:59:36.653Z,30.43
2022-09-24T17:01:42.328Z,28.50
2022-09-24T17:03:51.701Z,27.33
2022-09-24T17:05:54.656Z,28.40
2022-09-24T17:07:57.593Z,27.83
2022-09-24T17:10:15.981Z,28.80
2022-09-24T17:12:19.227Z,28.40
2022-09-24T17:14:22.223Z,29.73
2022-09-24T17:16:25.906Z,30.70
2022-09-24T17:18:28.870Z,29.97
2022-09-24T17:20:33.189Z,30.17
2022-09-24T17:22:36.308Z,29.27
2022-09-24T17:24:40.095Z,32.83
2022-09-24T17:26:43.111Z,29.03
2022-09-24T17:28:47.706Z,29.53
2022-09-24T17:30:52.310Z,30.50
2022-09-24T17:32:56.019Z,28.77
2022-09-24T17:34:59.033Z,28.23
2022-09-24T17:37:03.380Z,28.33
2022-09-24T17:39:07.096Z,26.67
2022-09-24T17:41:12.246Z,26.90
2022-09-24T17:43:15.237Z,25.70
2022-09-24T17:45:18.201Z,23.07
2022-09-24T17:47:21.175Z,22.70
2022-09-24T17:49:24.227Z,22.23
2022-09-24T17:51:30.350Z,23.13
2022-09-24T17:53:36.342Z,22.77
2022-09-24T17:55:41.275Z,22.47
2022-09-24T17:57:44.714Z,22.50
2022-09-24T17:59:47.709Z,21.33
2022-09-24T18:01:51.357Z,22.47
2022-09-24T18:03:55.132Z,24.47
2022-09-24T18:06:01.235Z,22.80
2022-09-24T18:08:04.611Z,24.40
2022-09-24T18:10:09.820Z,35.13
2022-09-24T18:12:17.057Z,35.50
2022-09-24T18:14:22.088Z,35.80
2022-09-24T18:16:26.675Z,34.57
2022-09-24T18:18:29.704Z,27.50
2022-09-24T18:20:32.762Z,28.87
2022-09-24T18:22:35.722Z,28.40
2022-09-24T18:24:38.881Z,28.80
2022-09-24T18:26:43.206Z,32.13
2022-09-24T18:28:49.357Z,30.83
2022-09-24T18:31:04.647Z,31.53
2022-09-24T18:33:08.136Z,30.47
2022-09-24T18:35:11.099Z,28.20
2022-09-24T18:37:14.014Z,32.27
2022-09-24T18:39:23.962Z,29.40
2022-09-24T18:41:29.870Z,31.10
2022-09-24T18:43:34.210Z,31.03
2022-09-24T18:45:37.325Z,30.57
2022-09-24T18:47:40.389Z,32.43
2022-09-24T18:49:44.235Z,28.30
2022-09-24T18:51:47.555Z,29.30
2022-09-24T18:53:52.665Z,30.40
2022-09-24T18:55:55.774Z,30.80
2022-09-24T18:57:58.747Z,33.83
2022-09-24T19:00:03.263Z,33.93
2022-09-24T19:02:06.370Z,32.97
2022-09-24T19:04:11.443Z,53.23
2022-09-24T19:06:14.516Z,47.63
2022-09-24T19:08:17.969Z,40.90
2022-09-24T19:10:20.936Z,42.40
2022-09-24T19:12:24.022Z,38.77
2022-09-24T19:14:27.247Z,34.23
2022-09-24T19:16:32.069Z,34.57
2022-09-24T19:18:36.598Z,33.57
2022-09-24T19:20:39.687Z,36.40
2022-09-24T19:22:50.023Z,33.07
2022-09-24T19:24:53.009Z,29.60
2022-09-24T19:26:56.037Z,28.20
2022-09-24T19:28:59.783Z,28.50
2022-09-24T19:31:03.856Z,32.83
2022-09-24T19:33:09.737Z,34.13
2022-09-24T19:35:14.095Z,29.47
2022-09-24T19:37:17.172Z,31.90
2022-09-24T19:39:20.281Z,28.30
2022-09-24T19:41:26.169Z,29.07
2022-09-24T19:43:29.512Z,28.47
2022-09-24T19:45:32.609Z,30.10
2022-09-24T19:47:35.655Z,27.30
2022-09-24T19:49:40.012Z,27.33
2022-09-24T19:51:43.046Z,28.23
2022-09-24T19:53:48.772Z,32.83
2022-09-24T19:55:51.708Z,31.70
2022-09-24T19:57:54.665Z,31.97
2022-09-24T19:59:57.637Z,34.67
2022-09-24T20:02:00.719Z,30.97
2022-09-24T20:04:05.379Z,27.00
2022-09-24T20:06:11.277Z,27.40
2022-09-24T20:08:15.130Z,26.53
2022-09-24T20:10:18.222Z,30.43
2022-09-24T20:12:21.117Z,28.03
2022-09-24T20:14:24.081Z,34.03
2022-09-24T20:16:28.317Z,34.20
2022-09-24T20:18:34.620Z,34.57
2022-09-24T20:20:37.670Z,31.30
2022-09-24T20:22:42.000Z,34.60
2022-09-24T20:24:44.977Z,31.63
2022-09-24T20:27:05.612Z,30.93
2022-09-24T20:29:09.648Z,29.80
2022-09-24T20:31:13.552Z,29.27
2022-09-24T20:33:17.667Z,32.20
2022-09-24T20:35:21.285Z,29.70
2022-09-24T20:37:24.495Z,30.27
2022-09-24T20:39:29.547Z,29.73
2022-09-24T20:41:32.537Z,33.63
2022-09-24T20:43:35.518Z,28.93
2022-09-24T20:45:41.218Z,38.10
2022-09-24T20:47:44.202Z,33.03
2022-09-24T20:49:47.184Z,27.57
2022-09-24T20:51:56.035Z,26.80
2022-09-24T20:54:00.764Z,27.77
2022-09-24T20:56:06.074Z,27.57
2022-09-24T20:58:09.086Z,27.90
2022-09-24T21:00:14.803Z,25.30
2022-09-24T21:02:17.877Z,27.87
2022-09-24T21:04:22.371Z,29.60
2022-09-24T21:06:25.425Z,28.70
2022-09-24T21:08:28.985Z,28.80
2022-09-24T21:10:32.492Z,28.37
2022-09-24T21:12:37.151Z,29.43
2022-09-24T21:14:40.279Z,26.93
2022-09-24T21:16:43.230Z,27.07
2022-09-24T21:18:46.557Z,26.13
2022-09-24T21:20:49.707Z,27.17
2022-09-24T21:22:52.711Z,28.40
2022-09-24T21:24:55.767Z,27.50
2022-09-24T21:27:00.068Z,30.40
2022-09-24T21:29:08.121Z,27.47
2022-09-24T21:31:11.310Z,27.53
2022-09-24T21:33:14.495Z,28.67
2022-09-24T21:35:17.668Z,30.63
2022-09-24T21:37:20.928Z,31.20
2022-09-24T21:39:26.510Z,30.33
2022-09-24T21:41:31.172Z,33.00
2022-09-24T21:43:35.124Z,28.37
2022-09-24T21:45:39.652Z,29.33
2022-09-24T21:47:42.621Z,26.33
2022-09-24T21:49:45.686Z,25.63
2022-09-24T21:51:48.647Z,25.83
2022-09-24T21:53:53.069Z,24.93
2022-09-24T21:55:56.013Z,27.60
2022-09-24T21:57:59.021Z,25.50
2022-09-24T22:00:04.368Z,24.20
2022-09-24T22:02:11.156Z,24.93
2022-09-24T22:04:14.242Z,23.13
2022-09-24T22:06:17.447Z,25.90
2022-09-24T22:08:27.159Z,23.07
2022-09-24T22:10:30.131Z,24.90
2022-09-24T22:12:35.361Z,24.90
2022-09-24T22:14:38.347Z,24.53
2022-09-24T22:16:41.501Z,23.23
2022-09-24T22:18:45.842Z,24.10
2022-09-24T22:20:49.748Z,24.47
2022-09-24T22:22:52.689Z,24.30
2022-09-24T22:24:55.755Z,23.80
2022-09-24T22:26:59.014Z,24.47
2022-09-24T22:29:03.766Z,27.03
2022-09-24T22:31:08.004Z,26.50
2022-09-24T22:33:31.060Z,26.57
2022-09-24T22:35:50.295Z,25.20
2022-09-24T22:37:53.260Z,23.30
2022-09-24T22:39:56.241Z,23.60
2022-09-24T22:41:59.146Z,26.33
2022-09-24T22:44:02.270Z,24.40
2022-09-24T22:46:07.264Z,23.83
2022-09-24T22:48:10.355Z,23.27
2022-09-24T22:50:13.728Z,24.03
2022-09-24T22:52:18.031Z,24.60
2022-09-24T22:54:20.978Z,26.20
2022-09-24T22:56:25.255Z,24.57
2022-09-24T22:58:28.225Z,24.13
2022-09-24T23:00:31.163Z,24.50
2022-09-24T23:02:35.473Z,25.00
2022-09-24T23:04:38.659Z,23.97
2022-09-24T23:06:42.126Z,24.10
2022-09-24T23:08:46.397Z,25.70
2022-09-24T23:10:49.308Z,24.13
2022-09-24T23:12:52.218Z,23.37
2022-09-24T23:14:58.078Z,27.10
2022-09-24T23:17:01.037Z,23.33
2022-09-24T23:19:05.892Z,22.93
2022-09-24T23:21:10.639Z,26.47
2022-09-24T23:23:13.650Z,24.93
2022-09-24T23:25:18.474Z,24.23
2022-09-24T23:27:21.873Z,23.20
2022-09-24T23:29:25.079Z,23.17
2022-09-24T23:31:29.533Z,25.20
2022-09-24T23:33:33.413Z,26.70
2022-09-24T23:35:36.278Z,23.30
2022-09-24T23:37:39.217Z,25.37
2022-09-24T23:39:42.145Z,23.20
2022-09-24T23:41:46.380Z,24.47
2022-09-24T23:43:49.332Z,26.10
2022-09-24T23:45:52.420Z,24.87
2022-09-24T23:47:55.403Z,24.77
2022-09-24T23:49:58.715Z,22.80
2022-09-24T23:52:01.996Z,24.90
2022-09-24T23:54:05.174Z,24.33
2022-09-24T23:56:09.166Z,23.60
2022-09-24T23:58:14.882Z,24.13
